createdAt,value
2023-04-16T00:03:55.801Z,9.45
2023-04-16T00:09:00.847Z,9.44
2023-04-16T00:14:05.197Z,9.34
2023-04-16T00:19:16.974Z,9.27
2023-04-16T00:24:21.346Z,9.35
2023-04-16T00:29:27.583Z,9.30
2023-04-16T00:34:33.386Z,9.47
2023-04-16T00:39:37.528Z,9.21
2023-04-16T00:44:43.357Z,9.27
2023-04-16T00:49:49.753Z,9.18
2023-04-16T00:54:55.129Z,9.36
2023-04-16T01:00:01.047Z,9.04
2023-04-16T01:05:09.588Z,9.00
2023-04-16T01:10:13.791Z,9.13
2023-04-16T01:15:18.348Z,9.16
2023-04-16T01:20:24.080Z,8.99
2023-04-16T01:25:29.740Z,9.19
2023-04-16T01:30:33.874Z,9.16
2023-04-16T01:35:49.806Z,8.99
2023-04-16T01:40:59.591Z,9.00
2023-04-16T01:46:15.352Z,9.04
2023-04-16T01:51:19.717Z,9.11
2023-04-16T01:56:25.364Z,9.30
2023-04-16T02:01:30.306Z,9.33
2023-04-16T02:06:35.724Z,9.49
2023-04-16T02:11:42.325Z,9.35
2023-04-16T02:16:46.937Z,9.46
2023-04-16T02:22:04.848Z,9.46
2023-04-16T02:27:17.612Z,9.51
2023-04-16T02:32:22.360Z,9.44
2023-04-16T02:37:26.651Z,9.46
2023-04-16T02:42:32.048Z,9.43
2023-04-16T02:47:36.188Z,9.46
2023-04-16T02:52:40.614Z,9.40
2023-04-16T02:57:46.072Z,9.33
2023-04-16T03:02:50.218Z,9.25
2023-04-16T03:07:56.908Z,9.12
2023-04-16T03:13:02.557Z,9.15
2023-04-16T03:18:06.923Z,9.09
2023-04-16T03:23:10.979Z,8.98
2023-04-16T03:28:16.405Z,8.95
2023-04-16T03:33:21.253Z,8.87
2023-04-16T03:38:26.190Z,8.97
2023-04-16T03:43:34.226Z,9.10
2023-04-16T03:48:40.377Z,8.96
2023-04-16T03:53:45.020Z,9.02
2023-04-16T03:58:52.304Z,9.08
2023-04-16T04:03:57.366Z,9.41
2023-04-16T04:09:01.552Z,9.30
2023-04-16T04:14:08.339Z,9.28
2023-04-16T04:19:12.779Z,9.06
2023-04-16T04:24:16.856Z,9.28
2023-04-16T04:29:23.443Z,9.06
2023-04-16T04:34:27.836Z,9.22
2023-04-16T04:39:35.659Z,9.06
2023-04-16T04:44:41.445Z,9.15
2023-04-16T04:49:46.721Z,9.08
2023-04-16T04:54:50.793Z,9.41
2023-04-16T04:59:56.522Z,9.50
2023-04-16T05:05:00.910Z,9.64
2023-04-16T05:10:05.222Z,9.69
2023-04-16T05:15:12.129Z,9.80
2023-04-16T05:20:16.286Z,9.77
2023-04-16T05:25:21.091Z,10.00
2023-04-16T05:30:26.646Z,10.02
2023-04-16T05:35:30.774Z,9.95
2023-04-16T05:40:35.312Z,9.92
2023-04-16T05:45:41.499Z,10.12
2023-04-16T05:50:45.544Z,10.46
2023-04-16T05:55:49.752Z,10.77
2023-04-16T06:00:55.268Z,10.64
2023-04-16T06:05:59.442Z,10.73
2023-04-16T06:11:04.047Z,10.91
2023-04-16T06:16:10.578Z,10.68
2023-04-16T06:21:14.696Z,10.69
2023-04-16T06:26:21.178Z,10.95
2023-04-16T06:31:26.907Z,11.44
2023-04-16T06:36:31.352Z,11.53
2023-04-16T06:41:35.408Z,11.73
2023-04-16T06:46:41.060Z,12.00
2023-04-16T06:51:46.965Z,12.30
2023-04-16T06:56:51.311Z,12.56
2023-04-16T07:01:59.066Z,12.73
2023-04-16T07:07:03.214Z,12.51
2023-04-16T07:12:08.874Z,12.52
2023-04-16T07:17:14.591Z,12.51
2023-04-16T07:22:18.814Z,12.70
2023-04-16T07:27:22.920Z,13.18
2023-04-16T07:32:28.438Z,13.52
2023-04-16T07:37:32.908Z,13.63
2023-04-16T07:42:37.704Z,13.51
2023-04-16T07:47:43.189Z,13.76
2023-04-16T07:52:48.872Z,14.19
2023-04-16T07:57:56.050Z,14.60
2023-04-16T08:03:02.921Z,14.29
2023-04-16T08:08:07.378Z,14.90
2023-04-16T08:13:12.828Z,14.41
2023-04-16T08:18:18.375Z,14.75
2023-04-16T08:23:22.817Z,15.14
2023-04-16T08:28:27.667Z,15.40
2023-04-16T08:33:33.517Z,15.47
2023-04-16T08:38:37.920Z,16.02
2023-04-16T08:43:47.982Z,16.19
2023-04-16T08:48:56.124Z,16.86
2023-04-16T08:54:04.705Z,16.89
2023-04-16T08:59:11.007Z,16.83
2023-04-16T09:04:19.215Z,17.85
2023-04-16T09:09:24.009Z,18.26
2023-04-16T09:14:28.842Z,18.26
2023-04-16T09:19:34.842Z,17.92
2023-04-16T09:24:40.198Z,18.12
2023-04-16T09:29:44.364Z,18.60
2023-04-16T09:35:01.815Z,18.36
2023-04-16T09:40:07.126Z,18.76
2023-04-16T09:45:12.153Z,19.37
2023-04-16T09:50:20.878Z,19.80
2023-04-16T09:55:28.943Z,20.38
2023-04-16T10:00:33.217Z,20.74
2023-04-16T10:05:38.787Z,19.80
2023-04-16T10:10:43.232Z,18.98
2023-04-16T10:15:49.141Z,18.42
2023-04-16T10:20:54.920Z,18.21
2023-04-16T10:26:01.616Z,18.02
2023-04-16T10:31:08.395Z,18.04
2023-04-16T10:36:15.758Z,18.10
2023-04-16T10:41:21.501Z,17.58
2023-04-16T10:46:27.801Z,17.35
2023-04-16T10:51:36.011Z,17.13
2023-04-16T10:56:42.639Z,17.12
2023-04-16T11:01:47.910Z,16.99
2023-04-16T11:07:04.490Z,17.11
2023-04-16T11:12:13.109Z,17.23
2023-04-16T11:17:17.785Z,17.04
2023-04-16T11:22:23.377Z,16.85
2023-04-16T11:27:27.736Z,16.50
2023-04-16T11:32:33.537Z,16.27
2023-04-16T11:37:40.020Z,16.15
2023-04-16T11:42:44.524Z,16.23
2023-04-16T11:47:52.003Z,16.64
2023-04-16T11:53:04.843Z,17.29
2023-04-16T11:58:18.275Z,17.09
2023-04-16T12:03:43.526Z,17.16
2023-04-16T12:08:49.949Z,16.74
2023-04-16T12:14:10.856Z,16.78
2023-04-16T12:19:15.424Z,16.87
2023-04-16T12:24:22.806Z,16.87
2023-04-16T12:29:28.591Z,17.24
2023-04-16T12:34:48.415Z,17.84
2023-04-16T12:39:55.273Z,18.43
2023-04-16T12:44:59.736Z,18.44
2023-04-16T12:50:03.942Z,18.66
2023-04-16T12:55:10.518Z,19.05
2023-04-16T13:00:16.502Z,19.55
2023-04-16T13:05:20.727Z,19.07
2023-04-16T13:10:27.865Z,18.39
2023-04-16T13:15:32.619Z,17.75
2023-04-16T13:20:37.229Z,17.27
2023-04-16T13:25:43.342Z,16.86
2023-04-16T13:30:48.233Z,16.40
2023-04-16T13:35:52.540Z,15.89
2023-04-16T13:40:59.039Z,15.66
2023-04-16T13:46:03.134Z,15.50
2023-04-16T13:51:08.402Z,15.25
2023-04-16T13:56:14.180Z,15.09
2023-04-16T14:01:19.656Z,14.76
2023-04-16T14:06:25.033Z,14.77
2023-04-16T14:11:30.906Z,15.03
2023-04-16T14:16:35.391Z,15.10
2023-04-16T14:21:39.884Z,15.24
2023-04-16T14:26:47.388Z,14.88
2023-04-16T14:31:51.608Z,14.61
2023-04-16T14:36:57.193Z,14.46
2023-04-16T14:42:02.934Z,14.38
2023-04-16T14:47:08.737Z,14.36
2023-04-16T14:52:12.992Z,14.37
2023-04-16T14:57:18.501Z,14.38
2023-04-16T15:02:22.752Z,14.36
2023-04-16T15:07:28.259Z,14.50
2023-04-16T15:12:33.984Z,14.54
2023-04-16T15:17:38.275Z,14.58
2023-04-16T15:22:45.412Z,14.50
2023-04-16T15:27:51.786Z,14.52
2023-04-16T15:33:22.372Z,14.46
2023-04-16T15:38:29.308Z,14.38
2023-04-16T15:43:35.070Z,14.46
2023-04-16T15:48:39.834Z,14.38
2023-04-16T15:53:45.364Z,14.09
2023-04-16T15:58:51.504Z,13.92
2023-04-16T16:03:56.061Z,13.77
2023-04-16T16:09:00.630Z,13.55
2023-04-16T16:14:06.230Z,13.45
2023-04-16T16:19:11.378Z,13.15
2023-04-16T16:24:15.774Z,12.93
2023-04-16T16:29:21.609Z,12.61
2023-04-16T16:34:26.264Z,12.48
2023-04-16T16:39:31.344Z,12.36
2023-04-16T16:44:37.674Z,12.36
2023-04-16T16:49:43.136Z,12.28
2023-04-16T16:54:48.115Z,12.13
2023-04-16T16:59:54.537Z,12.01
2023-04-16T17:04:59.491Z,12.08
2023-04-16T17:10:06.070Z,12.12
2023-04-16T17:15:13.594Z,12.08
2023-04-16T17:20:18.802Z,12.02
2023-04-16T17:25:22.990Z,11.76
2023-04-16T17:30:29.116Z,11.63
2023-04-16T17:35:35.672Z,11.48
2023-04-16T17:40:40.122Z,11.49
2023-04-16T17:45:46.179Z,11.30
2023-04-16T17:50:50.982Z,11.50
2023-04-16T17:55:56.974Z,11.38
2023-04-16T18:01:03.825Z,11.38
2023-04-16T18:06:07.913Z,11.39
2023-04-16T18:11:12.452Z,11.42
2023-04-16T18:16:19.282Z,11.45
2023-04-16T18:21:23.409Z,11.45
2023-04-16T18:26:29.853Z,11.67
2023-04-16T18:31:36.012Z,11.70
2023-04-16T18:36:40.322Z,11.61
2023-04-16T18:41:47.946Z,11.56
2023-04-16T18:46:53.800Z,11.71
2023-04-16T18:51:58.458Z,11.76
2023-04-16T18:57:03.556Z,11.64
2023-04-16T19:02:16.979Z,11.64
2023-04-16T19:07:21.024Z,11.54
2023-04-16T19:12:25.320Z,11.76
2023-04-16T19:17:31.288Z,11.77
2023-04-16T19:22:35.643Z,11.61
2023-04-16T19:27:39.948Z,11.56
2023-04-16T19:32:48.209Z,11.43
2023-04-16T19:37:52.890Z,11.40
2023-04-16T19:42:57.474Z,11.55
2023-04-16T19:48:03.134Z,11.78
2023-04-16T19:53:07.200Z,11.41
2023-04-16T19:58:11.492Z,11.43
2023-04-16T20:03:17.388Z,11.65
2023-04-16T20:08:22.094Z,11.89
2023-04-16T20:13:26.480Z,11.83
2023-04-16T20:18:32.459Z,11.86
2023-04-16T20:23:36.723Z,11.92
2023-04-16T20:28:41.086Z,11.80
2023-04-16T20:33:46.598Z,11.49
2023-04-16T20:38:53.784Z,11.66
2023-04-16T20:44:05.496Z,11.65
2023-04-16T20:49:14.140Z,11.57
2023-04-16T20:54:18.256Z,11.50
2023-04-16T20:59:22.309Z,11.43
2023-04-16T21:04:28.368Z,11.29
2023-04-16T21:09:32.707Z,11.25
2023-04-16T21:14:37.915Z,11.22
2023-04-16T21:19:44.039Z,11.04
2023-04-16T21:24:48.079Z,11.00
2023-04-16T21:29:53.351Z,11.02
2023-04-16T21:34:59.244Z,10.95
2023-04-16T21:40:04.949Z,10.97
2023-04-16T21:45:10.472Z,11.06
2023-04-16T21:50:17.317Z,11.00
2023-04-16T21:55:22.895Z,11.05
2023-04-16T22:00:26.930Z,10.94
2023-04-16T22:05:33.692Z,10.95
2023-04-16T22:10:38.236Z,10.97
2023-04-16T22:15:42.444Z,10.86
2023-04-16T22:20:50.990Z,10.84
2023-04-16T22:25:57.718Z,10.89
2023-04-16T22:31:01.982Z,10.95
2023-04-16T22:36:09.205Z,10.96
2023-04-16T22:41:13.491Z,11.04
2023-04-16T22:46:20.315Z,10.94
2023-04-16T22:51:26.329Z,10.83
2023-04-16T22:56:31.200Z,10.74
2023-04-16T23:01:36.575Z,10.66
2023-04-16T23:06:42.237Z,10.94
2023-04-16T23:11:46.622Z,10.76
2023-04-16T23:16:50.891Z,10.83
2023-04-16T23:21:56.615Z,10.66
2023-04-16T23:27:01.242Z,10.61
2023-04-16T23:32:06.342Z,10.43
2023-04-16T23:37:11.980Z,10.25
2023-04-16T23:42:16.062Z,10.22
2023-04-16T23:47:20.175Z,10.13
2023-04-16T23:52:26.029Z,10.26
2023-04-16T23:57:30.237Z,10.21
